createdAt,value
2023-07-06T00:00:51.541Z,36.49
2023-07-06T00:01:51.683Z,36.52
2023-07-06T00:02:51.783Z,36.49
2023-07-06T00:03:51.800Z,36.50
2023-07-06T00:04:51.863Z,36.51
2023-07-06T00:05:51.975Z,36.48
2023-07-06T00:06:52.063Z,36.48
2023-07-06T00:07:52.168Z,36.52
2023-07-06T00:08:52.245Z,36.50
2023-07-06T00:09:52.344Z,36.47
2023-07-06T00:10:52.473Z,36.50
2023-07-06T00:11:52.567Z,36.48
2023-07-06T00:12:52.632Z,36.47
2023-07-06T00:13:52.762Z,36.49
2023-07-06T00:14:52.795Z,36.49
2023-07-06T00:15:53.042Z,36.52
2023-07-06T00:16:53.028Z,36.48
2023-07-06T00:17:53.140Z,36.49
2023-07-06T00:18:53.377Z,36.52
2023-07-06T00:19:53.260Z,36.48
2023-07-06T00:20:53.362Z,36.54
2023-07-06T00:21:53.476Z,36.48
2023-07-06T00:22:53.590Z,36.53
2023-07-06T00:23:53.668Z,36.52
2023-07-06T00:24:53.736Z,36.52
2023-07-06T00:25:54.158Z,36.51
2023-07-06T00:26:53.922Z,36.52
2023-07-06T00:27:54.018Z,36.54
2023-07-06T00:28:54.089Z,36.52
2023-07-06T00:29:54.166Z,36.55
2023-07-06T00:30:54.260Z,36.53
2023-07-06T00:31:54.377Z,36.56
2023-07-06T00:32:54.424Z,36.60
2023-07-06T00:33:54.438Z,36.59
2023-07-06T00:34:54.496Z,36.59
2023-07-06T00:35:54.782Z,36.58
2023-07-06T00:36:54.620Z,36.56
2023-07-06T00:37:54.659Z,36.56
2023-07-06T00:38:54.742Z,36.57
2023-07-06T00:39:54.819Z,36.57
2023-07-06T00:40:54.882Z,36.59
2023-07-06T00:41:54.951Z,36.54
2023-07-06T00:42:55.021Z,36.57
2023-07-06T00:43:55.140Z,36.54
2023-07-06T00:44:55.200Z,36.60
2023-07-06T00:45:55.613Z,36.60
2023-07-06T00:46:55.390Z,36.60
2023-07-06T00:47:55.503Z,36.57
2023-07-06T00:48:55.592Z,36.60
2023-07-06T00:49:55.651Z,36.58
2023-07-06T00:50:55.705Z,36.59
2023-07-06T00:51:55.796Z,36.62
2023-07-06T00:52:55.911Z,36.58
2023-07-06T00:53:55.959Z,36.57
2023-07-06T00:54:56.041Z,36.60
2023-07-06T00:55:56.302Z,36.58
2023-07-06T00:56:56.170Z,36.61
2023-07-06T00:57:56.239Z,36.58
2023-07-06T00:58:56.315Z,36.57
2023-07-06T00:59:56.388Z,36.57
2023-07-06T01:00:56.475Z,36.60
2023-07-06T01:01:56.561Z,36.58
2023-07-06T01:02:56.732Z,36.58
2023-07-06T01:03:56.702Z,36.61
2023-07-06T01:04:56.733Z,36.60
2023-07-06T01:05:57.034Z,36.57
2023-07-06T01:06:56.827Z,36.61
2023-07-06T01:07:56.863Z,36.60
2023-07-06T01:08:56.907Z,36.58
2023-07-06T01:09:56.952Z,36.60
2023-07-06T01:10:56.988Z,36.61
2023-07-06T01:11:57.022Z,36.58
2023-07-06T01:12:57.065Z,36.57
2023-07-06T01:13:57.242Z,36.60
2023-07-06T01:14:58.995Z,36.61
2023-07-06T01:15:57.673Z,36.55
2023-07-06T01:16:57.466Z,36.58
2023-07-06T01:17:57.533Z,36.57
2023-07-06T01:18:57.580Z,36.54
2023-07-06T01:19:57.658Z,36.60
2023-07-06T01:20:57.772Z,36.57
2023-07-06T01:21:57.869Z,36.54
2023-07-06T01:22:57.974Z,36.55
2023-07-06T01:23:58.083Z,36.57
2023-07-06T01:24:58.192Z,36.54
2023-07-06T01:25:58.761Z,36.60
2023-07-06T01:26:58.409Z,36.57
2023-07-06T01:27:58.502Z,36.57
2023-07-06T01:28:58.657Z,36.62
2023-07-06T01:29:58.684Z,36.55
2023-07-06T01:30:58.763Z,36.58
2023-07-06T01:31:58.749Z,36.63
2023-07-06T01:32:58.788Z,36.63
2023-07-06T01:33:58.827Z,36.60
2023-07-06T01:34:58.861Z,36.59
2023-07-06T01:35:58.901Z,36.63
2023-07-06T01:36:58.937Z,36.59
2023-07-06T01:37:58.992Z,36.57
2023-07-06T01:38:59.017Z,36.59
2023-07-06T01:39:59.077Z,36.55
2023-07-06T01:40:59.107Z,36.62
2023-07-06T01:41:59.146Z,36.60
2023-07-06T01:42:59.181Z,36.56
2023-07-06T01:43:59.225Z,36.57
2023-07-06T01:44:59.273Z,36.51
2023-07-06T01:45:59.375Z,36.58
2023-07-06T01:46:59.408Z,36.54
2023-07-06T01:47:59.456Z,36.52
2023-07-06T01:48:59.485Z,36.52
2023-07-06T01:49:59.585Z,36.57
2023-07-06T01:50:59.690Z,36.58
2023-07-06T01:51:59.810Z,36.54
2023-07-06T01:52:59.837Z,36.57
2023-07-06T01:53:59.884Z,36.51
2023-07-06T01:55:00.023Z,36.50
2023-07-06T01:55:59.947Z,36.52
2023-07-06T01:56:59.993Z,36.50
2023-07-06T01:58:01.629Z,36.54
2023-07-06T01:59:00.075Z,36.58
2023-07-06T02:00:00.177Z,36.52
2023-07-06T02:01:00.268Z,36.51
2023-07-06T02:02:00.293Z,36.50
2023-07-06T02:03:00.529Z,36.55
2023-07-06T02:04:00.443Z,36.55
2023-07-06T02:05:00.578Z,36.52
2023-07-06T02:06:00.673Z,36.51
2023-07-06T02:07:00.781Z,36.57
2023-07-06T02:08:00.904Z,36.54
2023-07-06T02:09:00.984Z,36.54
2023-07-06T02:10:01.070Z,36.50
2023-07-06T02:11:01.170Z,36.54
2023-07-06T02:12:01.279Z,36.54
2023-07-06T02:13:01.392Z,36.54
2023-07-06T02:14:01.545Z,36.52
2023-07-06T02:15:01.570Z,36.52
2023-07-06T02:16:01.654Z,36.58
2023-07-06T02:17:01.770Z,36.51
2023-07-06T02:18:01.843Z,36.55
2023-07-06T02:19:01.912Z,36.51
2023-07-06T02:20:01.980Z,36.53
2023-07-06T02:21:02.147Z,36.52
2023-07-06T02:22:02.151Z,36.53
2023-07-06T02:23:02.226Z,36.56
2023-07-06T02:24:02.310Z,36.58
2023-07-06T02:25:02.395Z,36.55
2023-07-06T02:26:02.488Z,36.53
2023-07-06T02:27:02.574Z,36.52
2023-07-06T02:28:02.652Z,36.56
2023-07-06T02:29:02.755Z,36.53
2023-07-06T02:30:02.847Z,36.53
2023-07-06T02:31:02.984Z,36.49
2023-07-06T02:32:02.991Z,36.55
2023-07-06T02:33:03.114Z,36.51
2023-07-06T02:34:03.202Z,36.45
2023-07-06T02:35:03.311Z,36.48
2023-07-06T02:36:03.389Z,36.52
2023-07-06T02:37:03.480Z,36.52
2023-07-06T02:38:03.600Z,36.48
2023-07-06T02:39:03.687Z,36.51
2023-07-06T02:40:03.811Z,36.48
2023-07-06T02:41:03.909Z,36.47
2023-07-06T02:42:03.998Z,36.48
2023-07-06T02:43:04.121Z,36.43
2023-07-06T02:44:04.162Z,36.47
2023-07-06T02:45:04.208Z,36.47
2023-07-06T02:46:04.349Z,36.49
2023-07-06T02:47:04.382Z,36.52
2023-07-06T02:48:04.544Z,36.51
2023-07-06T02:49:04.588Z,36.51
2023-07-06T02:50:04.684Z,36.46
2023-07-06T02:51:04.781Z,36.53
2023-07-06T02:52:04.856Z,36.48
2023-07-06T02:53:04.940Z,36.53
2023-07-06T02:54:05.039Z,36.49
2023-07-06T02:55:05.130Z,36.45
2023-07-06T02:56:05.234Z,36.46
2023-07-06T02:57:05.300Z,36.46
2023-07-06T02:58:05.376Z,36.52
2023-07-06T02:59:05.451Z,36.49
2023-07-06T03:00:05.529Z,36.49
2023-07-06T03:01:05.599Z,36.47
2023-07-06T03:02:05.693Z,36.48
2023-07-06T03:03:05.730Z,36.49
2023-07-06T03:04:05.825Z,36.47
2023-07-06T03:05:05.927Z,36.50
2023-07-06T03:06:05.933Z,36.49
2023-07-06T03:07:05.986Z,36.49
2023-07-06T03:08:06.042Z,36.35
2023-07-06T03:09:06.105Z,36.28
2023-07-06T03:10:06.155Z,36.31
2023-07-06T03:11:06.207Z,36.36
2023-07-06T03:12:06.250Z,36.34
2023-07-06T03:13:06.317Z,36.33
2023-07-06T03:14:06.360Z,36.31
2023-07-06T03:15:06.406Z,36.38
2023-07-06T03:16:06.487Z,36.38
2023-07-06T03:17:06.516Z,36.44
2023-07-06T03:18:06.583Z,36.46
2023-07-06T03:19:06.663Z,36.54
2023-07-06T03:20:06.713Z,36.59
2023-07-06T03:21:06.793Z,36.66
2023-07-06T03:22:06.860Z,36.66
2023-07-06T03:23:06.938Z,36.76
2023-07-06T03:24:06.986Z,36.79
2023-07-06T03:25:07.041Z,36.80
2023-07-06T03:26:07.097Z,36.85
2023-07-06T03:27:07.130Z,36.91
2023-07-06T03:28:07.179Z,36.98
2023-07-06T03:29:07.233Z,36.99
2023-07-06T03:30:07.292Z,37.03
2023-07-06T03:31:07.379Z,37.08
2023-07-06T03:32:07.411Z,37.14
2023-07-06T03:33:07.494Z,37.19
2023-07-06T03:34:07.624Z,37.19
2023-07-06T03:35:07.555Z,37.18
2023-07-06T03:36:07.610Z,37.24
2023-07-06T03:37:07.697Z,37.27
2023-07-06T03:38:07.725Z,37.27
2023-07-06T03:39:07.797Z,37.29
2023-07-06T03:40:07.849Z,37.36
2023-07-06T03:41:07.940Z,37.36
2023-07-06T03:42:08.033Z,37.36
2023-07-06T03:43:08.144Z,37.45
2023-07-06T03:44:08.226Z,37.42
2023-07-06T03:45:08.364Z,37.43
2023-07-06T03:46:08.492Z,37.48
2023-07-06T03:47:08.609Z,37.50
2023-07-06T03:48:08.653Z,37.48
2023-07-06T03:49:08.768Z,37.51
2023-07-06T03:50:08.869Z,37.55
2023-07-06T03:51:09.000Z,37.53
2023-07-06T03:52:09.080Z,37.59
2023-07-06T03:53:09.191Z,37.59
2023-07-06T03:54:09.304Z,37.59
2023-07-06T03:55:09.465Z,37.65
2023-07-06T03:56:09.522Z,37.62
2023-07-06T03:57:09.637Z,37.64
2023-07-06T03:58:09.788Z,37.65
2023-07-06T03:59:09.870Z,37.66
2023-07-06T04:00:09.973Z,37.65
2023-07-06T04:01:10.107Z,37.61
2023-07-06T04:02:10.190Z,37.65
2023-07-06T04:03:10.358Z,37.64
2023-07-06T04:04:10.410Z,37.67
2023-07-06T04:05:10.527Z,37.66
2023-07-06T04:06:10.640Z,37.67
2023-07-06T04:07:10.748Z,37.66
2023-07-06T04:08:10.855Z,37.69
2023-07-06T04:09:10.990Z,37.68
2023-07-06T04:10:11.098Z,37.74
2023-07-06T04:11:11.134Z,37.76
2023-07-06T04:12:11.201Z,37.80
2023-07-06T04:13:11.403Z,37.87
2023-07-06T04:14:11.310Z,37.86
2023-07-06T04:15:11.365Z,37.85
2023-07-06T04:16:11.414Z,37.90
2023-07-06T04:17:11.488Z,37.89
2023-07-06T04:18:11.621Z,37.93
2023-07-06T04:19:11.596Z,37.93
2023-07-06T04:20:11.671Z,37.93
2023-07-06T04:21:11.716Z,37.98
2023-07-06T04:22:11.819Z,38.02
2023-07-06T04:23:11.932Z,38.02
2023-07-06T04:24:12.054Z,38.02
2023-07-06T04:25:12.179Z,37.99
2023-07-06T04:26:12.294Z,38.05
2023-07-06T04:27:12.419Z,38.06
2023-07-06T04:28:12.543Z,38.06
2023-07-06T04:29:12.660Z,38.07
2023-07-06T04:30:12.778Z,38.10
2023-07-06T04:31:12.937Z,38.11
2023-07-06T04:32:13.003Z,38.12
2023-07-06T04:33:13.117Z,38.18
2023-07-06T04:34:13.257Z,38.16
2023-07-06T04:35:13.366Z,38.20
2023-07-06T04:36:13.494Z,38.19
2023-07-06T04:37:13.611Z,38.19
2023-07-06T04:38:13.732Z,38.24
2023-07-06T04:39:13.793Z,38.20
2023-07-06T04:40:13.848Z,38.25
2023-07-06T04:41:13.910Z,38.20
2023-07-06T04:42:13.975Z,38.26
2023-07-06T04:43:14.034Z,38.26
2023-07-06T04:44:14.095Z,38.24
2023-07-06T04:45:14.168Z,38.23
2023-07-06T04:46:14.228Z,38.26
2023-07-06T04:47:14.301Z,38.19
2023-07-06T04:48:14.326Z,38.19
2023-07-06T04:49:14.414Z,38.19
2023-07-06T04:50:14.532Z,38.12
2023-07-06T04:51:14.642Z,38.16
2023-07-06T04:52:14.766Z,38.16
2023-07-06T04:53:14.888Z,38.22
2023-07-06T04:54:14.949Z,38.27
2023-07-06T04:55:15.000Z,38.20
2023-07-06T04:56:15.061Z,38.27
2023-07-06T04:57:15.122Z,38.24
2023-07-06T04:58:15.171Z,38.35
2023-07-06T04:59:15.231Z,38.31
2023-07-06T05:00:15.302Z,38.32
2023-07-06T05:01:15.416Z,38.34
2023-07-06T05:02:15.407Z,38.36
2023-07-06T05:03:15.553Z,38.33
2023-07-06T05:04:15.583Z,38.32
2023-07-06T05:05:15.716Z,38.33
2023-07-06T05:06:15.848Z,38.43
2023-07-06T05:07:15.959Z,38.35
2023-07-06T05:08:16.089Z,38.26
2023-07-06T05:09:16.247Z,38.24
2023-07-06T05:10:16.354Z,38.17
2023-07-06T05:11:16.437Z,38.09
2023-07-06T05:12:16.565Z,38.01
2023-07-06T05:13:16.761Z,37.93
2023-07-06T05:14:16.744Z,37.91
2023-07-06T05:15:16.882Z,37.84
2023-07-06T05:16:16.917Z,37.74
2023-07-06T05:17:17.017Z,37.66
2023-07-06T05:18:17.097Z,37.61
2023-07-06T05:19:17.177Z,37.58
2023-07-06T05:20:17.255Z,37.51
2023-07-06T05:21:17.320Z,37.48
2023-07-06T05:22:19.060Z,37.37
2023-07-06T05:23:17.470Z,37.40
2023-07-06T05:24:17.582Z,37.37
2023-07-06T05:25:17.637Z,37.34
2023-07-06T05:26:17.710Z,37.32
2023-07-06T05:27:17.773Z,37.27
2023-07-06T05:28:17.857Z,37.23
2023-07-06T05:29:17.921Z,37.20
2023-07-06T05:30:20.787Z,37.18
2023-07-06T05:31:18.101Z,37.14
2023-07-06T05:32:18.110Z,37.14
2023-07-06T05:33:18.151Z,37.10
2023-07-06T05:34:18.203Z,37.09
2023-07-06T05:35:18.296Z,37.04
2023-07-06T05:36:18.297Z,37.09
2023-07-06T05:37:34.065Z,37.08
2023-07-06T05:38:19.395Z,37.01
2023-07-06T05:39:18.440Z,37.02
2023-07-06T05:40:18.511Z,37.03
2023-07-06T05:41:18.536Z,37.02
2023-07-06T05:42:18.595Z,37.04
2023-07-06T05:43:18.646Z,36.98
2023-07-06T05:44:18.686Z,36.91
2023-07-06T05:45:18.731Z,36.94
2023-07-06T05:46:18.820Z,36.95
2023-07-06T05:47:18.906Z,36.95
2023-07-06T05:48:18.925Z,36.97
2023-07-06T05:49:18.972Z,37.02
2023-07-06T05:50:19.051Z,37.03
2023-07-06T05:51:19.073Z,37.08
2023-07-06T05:52:19.141Z,37.09
2023-07-06T05:53:19.183Z,37.07
2023-07-06T05:54:19.248Z,37.07
2023-07-06T05:55:19.298Z,37.09
2023-07-06T05:56:19.401Z,37.11
2023-07-06T05:57:19.401Z,37.11
2023-07-06T05:58:19.459Z,37.17
2023-07-06T05:59:19.526Z,37.09
2023-07-06T06:00:19.576Z,37.15
2023-07-06T06:01:19.637Z,37.12
2023-07-06T06:02:19.756Z,37.15
2023-07-06T06:03:19.737Z,37.08
2023-07-06T06:04:19.873Z,37.13
2023-07-06T06:05:19.860Z,37.09
2023-07-06T06:06:19.935Z,37.10
2023-07-06T06:07:19.965Z,37.04
2023-07-06T06:08:20.021Z,37.01
2023-07-06T06:09:20.103Z,37.06
2023-07-06T06:10:20.207Z,37.14
2023-07-06T06:11:20.341Z,37.14
2023-07-06T06:12:20.524Z,37.18
2023-07-06T06:13:20.574Z,37.17
2023-07-06T06:14:20.694Z,37.16
2023-07-06T06:15:20.762Z,37.19
2023-07-06T06:16:20.896Z,37.17
2023-07-06T06:17:21.084Z,37.15
2023-07-06T06:18:21.093Z,37.16
2023-07-06T06:19:21.221Z,37.13
2023-07-06T06:20:21.342Z,37.05
2023-07-06T06:21:21.412Z,37.02
2023-07-06T06:22:21.535Z,37.01
2023-07-06T06:23:21.627Z,36.98
2023-07-06T06:24:21.757Z,36.99
2023-07-06T06:25:21.864Z,37.03
2023-07-06T06:26:21.968Z,37.04
2023-07-06T06:27:22.059Z,37.05
2023-07-06T06:28:22.180Z,37.08
2023-07-06T06:29:22.279Z,37.12
2023-07-06T06:30:22.380Z,37.12
2023-07-06T06:31:22.521Z,37.11
2023-07-06T06:32:22.623Z,37.16
2023-07-06T06:33:22.695Z,37.23
2023-07-06T06:34:22.808Z,37.31
2023-07-06T06:35:22.997Z,37.37
2023-07-06T06:36:23.055Z,37.37
2023-07-06T06:37:23.125Z,37.37
2023-07-06T06:38:23.245Z,37.34
2023-07-06T06:39:23.360Z,37.36
2023-07-06T06:40:23.459Z,37.39
2023-07-06T06:41:23.553Z,37.32
2023-07-06T06:42:23.664Z,37.32
2023-07-06T06:43:23.770Z,37.36
2023-07-06T06:44:23.880Z,37.36
2023-07-06T06:45:24.006Z,37.37
2023-07-06T06:46:24.259Z,37.37
2023-07-06T06:47:24.237Z,37.42
2023-07-06T06:48:24.334Z,37.47
2023-07-06T06:49:24.441Z,37.47
2023-07-06T06:50:24.558Z,37.51
2023-07-06T06:51:24.666Z,37.51
2023-07-06T06:52:24.784Z,37.50
2023-07-06T06:53:24.871Z,37.54
2023-07-06T06:54:24.989Z,37.55
2023-07-06T06:55:25.045Z,37.61
2023-07-06T06:56:25.107Z,37.64
2023-07-06T06:57:25.184Z,37.69
2023-07-06T06:58:25.224Z,37.69
2023-07-06T06:59:25.290Z,37.70
2023-07-06T07:00:25.330Z,37.76
2023-07-06T07:01:25.453Z,37.74
2023-07-06T07:02:25.463Z,37.83
2023-07-06T07:03:25.525Z,37.80
2023-07-06T07:04:25.558Z,37.84
2023-07-06T07:05:25.611Z,37.89
2023-07-06T07:06:25.663Z,37.88
2023-07-06T07:07:25.721Z,37.95
2023-07-06T07:08:25.816Z,37.98
2023-07-06T07:09:25.918Z,37.99
2023-07-06T07:10:26.026Z,37.98
2023-07-06T07:11:26.129Z,38.03
2023-07-06T07:12:26.251Z,38.07
2023-07-06T07:13:26.385Z,38.17
2023-07-06T07:14:26.411Z,38.32
2023-07-06T07:15:26.475Z,38.36
2023-07-06T07:16:26.586Z,38.69
2023-07-06T07:17:26.612Z,38.74
2023-07-06T07:18:26.660Z,38.86
2023-07-06T07:19:26.709Z,39.25
2023-07-06T07:20:26.776Z,39.34
2023-07-06T07:21:26.816Z,39.36
2023-07-06T07:22:27.388Z,39.68
2023-07-06T07:23:26.908Z,39.99
2023-07-06T07:24:27.023Z,39.69
2023-07-06T07:25:29.470Z,39.62
2023-07-06T07:26:27.166Z,39.80
2023-07-06T07:27:27.142Z,39.78
2023-07-06T07:28:27.191Z,39.88
2023-07-06T07:29:27.283Z,40.16
2023-07-06T07:30:27.348Z,40.19
2023-07-06T07:31:27.380Z,40.25
2023-07-06T07:32:27.417Z,40.21
2023-07-06T07:33:27.437Z,40.12
2023-07-06T07:34:27.506Z,39.97
2023-07-06T07:35:27.572Z,39.90
2023-07-06T07:36:27.650Z,40.03
2023-07-06T07:37:27.676Z,40.15
2023-07-06T07:38:27.711Z,40.25
2023-07-06T07:39:27.834Z,40.38
2023-07-06T07:40:27.796Z,40.65
2023-07-06T07:41:27.831Z,40.81
2023-07-06T07:42:27.897Z,40.84
2023-07-06T07:43:27.942Z,40.99
2023-07-06T07:44:27.976Z,41.01
2023-07-06T07:45:28.089Z,41.12
2023-07-06T07:46:28.156Z,40.63
2023-07-06T07:47:28.219Z,40.72
2023-07-06T07:48:28.154Z,39.99
2023-07-06T07:49:28.256Z,39.62
2023-07-06T07:50:28.255Z,39.13
2023-07-06T07:51:28.296Z,39.33
2023-07-06T07:52:28.321Z,38.82
2023-07-06T07:53:28.367Z,38.77
2023-07-06T07:54:28.417Z,38.35
2023-07-06T07:55:28.481Z,38.09
2023-07-06T07:56:28.510Z,38.08
2023-07-06T07:57:28.551Z,37.97
2023-07-06T07:58:28.689Z,38.04
2023-07-06T07:59:28.682Z,38.02
2023-07-06T08:00:28.712Z,38.07
2023-07-06T08:01:28.796Z,38.03
2023-07-06T08:02:28.860Z,38.03
2023-07-06T08:03:28.898Z,37.99
2023-07-06T08:04:28.895Z,37.96
2023-07-06T08:05:28.929Z,38.02
2023-07-06T08:06:29.015Z,38.07
2023-07-06T08:07:29.035Z,38.11
2023-07-06T08:08:29.089Z,38.21
2023-07-06T08:09:29.133Z,38.28
2023-07-06T08:10:29.168Z,38.28
2023-07-06T08:11:29.214Z,38.38
2023-07-06T08:12:29.266Z,38.36
2023-07-06T08:13:29.350Z,38.47
2023-07-06T08:14:29.359Z,38.56
2023-07-06T08:15:29.410Z,38.62
2023-07-06T08:16:29.530Z,38.68
2023-07-06T08:17:29.507Z,38.62
2023-07-06T08:18:29.560Z,38.72
2023-07-06T08:19:41.655Z,38.70
2023-07-06T08:21:28.207Z,38.64
2023-07-06T08:21:51.634Z,38.66
2023-07-06T08:22:30.755Z,38.63
2023-07-06T08:23:29.784Z,38.92
2023-07-06T08:24:29.826Z,39.53
2023-07-06T08:25:29.878Z,39.62
2023-07-06T08:26:29.941Z,39.46
2023-07-06T08:27:29.933Z,39.35
2023-07-06T08:28:29.989Z,39.37
2023-07-06T08:29:30.039Z,39.30
2023-07-06T08:30:30.054Z,39.25
2023-07-06T08:31:30.159Z,39.24
2023-07-06T08:32:30.161Z,39.14
2023-07-06T08:33:30.165Z,38.99
2023-07-06T08:34:30.212Z,38.92
2023-07-06T08:35:30.237Z,38.76
2023-07-06T08:36:30.265Z,38.66
2023-07-06T08:37:30.320Z,38.69
2023-07-06T08:38:30.347Z,38.58
2023-07-06T08:39:30.387Z,38.52
2023-07-06T08:40:30.428Z,38.45
2023-07-06T08:41:30.463Z,38.38
2023-07-06T08:42:30.523Z,38.29
2023-07-06T08:43:30.549Z,38.29
2023-07-06T08:44:30.592Z,38.18
2023-07-06T08:45:30.653Z,38.04
2023-07-06T08:46:30.737Z,38.00
2023-07-06T08:47:30.835Z,37.95
2023-07-06T08:48:30.926Z,37.77
2023-07-06T08:49:31.338Z,37.65
2023-07-06T08:50:31.152Z,37.61
2023-07-06T08:51:31.262Z,37.52
2023-07-06T08:52:31.362Z,37.50
2023-07-06T08:53:31.481Z,37.57
2023-07-06T08:54:31.588Z,37.43
2023-07-06T08:55:31.706Z,37.49
2023-07-06T08:56:31.811Z,37.44
2023-07-06T08:57:31.976Z,37.38
2023-07-06T08:58:32.093Z,37.13
2023-07-06T08:59:32.155Z,37.03
2023-07-06T09:00:32.254Z,36.98
2023-07-06T09:01:32.346Z,36.88
2023-07-06T09:02:32.428Z,36.80
2023-07-06T09:03:32.502Z,36.60
2023-07-06T09:04:32.576Z,36.49
2023-07-06T09:05:32.725Z,36.65
2023-07-06T09:06:32.804Z,36.58
2023-07-06T09:07:32.889Z,36.49
2023-07-06T09:08:32.971Z,36.45
2023-07-06T09:09:33.109Z,36.50
2023-07-06T09:10:33.127Z,36.67
2023-07-06T09:11:33.220Z,36.77
2023-07-06T09:12:33.281Z,36.81
2023-07-06T09:13:33.416Z,36.81
2023-07-06T09:14:33.469Z,36.94
2023-07-06T09:15:35.911Z,36.96
2023-07-06T09:16:33.598Z,36.89
2023-07-06T09:17:33.635Z,37.01
2023-07-06T09:18:33.636Z,37.15
2023-07-06T09:19:33.677Z,37.10
2023-07-06T09:20:33.710Z,37.21
2023-07-06T09:21:33.750Z,37.17
2023-07-06T09:22:33.800Z,37.20
2023-07-06T09:23:33.854Z,37.16
2023-07-06T09:24:33.871Z,37.20
2023-07-06T09:25:33.909Z,37.16
2023-07-06T09:26:34.325Z,37.18
2023-07-06T09:27:34.076Z,37.20
2023-07-06T09:28:34.116Z,37.18
2023-07-06T09:29:34.225Z,37.14
2023-07-06T09:30:34.405Z,37.14
2023-07-06T09:31:34.378Z,37.17
2023-07-06T09:32:34.904Z,37.16
2023-07-06T09:33:34.482Z,37.10
2023-07-06T09:34:34.503Z,37.10
2023-07-06T09:35:34.542Z,37.06
2023-07-06T09:36:34.576Z,37.14
2023-07-06T09:37:34.623Z,37.14
2023-07-06T09:38:34.665Z,37.12
2023-07-06T09:39:34.712Z,37.15
2023-07-06T09:40:34.737Z,37.15
2023-07-06T09:41:34.774Z,37.15
2023-07-06T09:42:34.859Z,37.15
2023-07-06T09:43:34.866Z,37.14
2023-07-06T09:44:34.908Z,37.04
2023-07-06T09:45:34.918Z,37.10
2023-07-06T09:46:34.977Z,37.05
2023-07-06T09:47:35.096Z,37.03
2023-07-06T09:48:35.141Z,37.05
2023-07-06T09:49:35.233Z,37.07
2023-07-06T09:50:35.333Z,36.98
2023-07-06T09:51:35.420Z,37.00
2023-07-06T09:52:35.507Z,36.99
2023-07-06T09:53:35.594Z,36.91
2023-07-06T09:54:35.681Z,36.96
2023-07-06T09:55:35.767Z,36.95
2023-07-06T09:56:35.855Z,36.93
2023-07-06T09:57:35.941Z,36.94
2023-07-06T09:58:35.976Z,36.84
2023-07-06T09:59:36.010Z,36.90
2023-07-06T10:00:36.030Z,36.84
2023-07-06T10:01:36.096Z,36.87
2023-07-06T10:02:36.144Z,36.94
2023-07-06T10:03:36.133Z,36.86
2023-07-06T10:04:36.160Z,36.85
2023-07-06T10:05:36.258Z,36.83
2023-07-06T10:06:36.193Z,36.78
2023-07-06T10:07:36.221Z,36.85
2023-07-06T10:08:36.270Z,36.82
2023-07-06T10:09:36.356Z,36.82
2023-07-06T10:10:36.449Z,36.78
2023-07-06T10:11:36.506Z,36.77
2023-07-06T10:12:36.573Z,36.77
2023-07-06T10:13:36.708Z,36.74
2023-07-06T10:14:36.734Z,36.79
2023-07-06T10:15:36.837Z,36.79
2023-07-06T10:16:36.892Z,36.76
2023-07-06T10:17:37.067Z,36.72
2023-07-06T10:18:36.982Z,36.73
2023-07-06T10:19:37.020Z,36.71
2023-07-06T10:20:37.039Z,36.75
2023-07-06T10:21:37.077Z,36.73
2023-07-06T10:22:37.084Z,36.69
2023-07-06T10:23:37.127Z,36.77
2023-07-06T10:24:37.148Z,36.75
2023-07-06T10:25:37.182Z,36.74
2023-07-06T10:26:37.205Z,36.80
2023-07-06T10:27:37.232Z,36.85
2023-07-06T10:28:37.302Z,36.79
2023-07-06T10:29:37.285Z,36.79
2023-07-06T10:30:37.362Z,36.79
2023-07-06T10:31:37.479Z,36.80
2023-07-06T10:32:37.534Z,36.79
2023-07-06T10:33:37.592Z,36.83
2023-07-06T10:34:37.664Z,36.80
2023-07-06T10:35:37.756Z,36.79
2023-07-06T10:36:37.816Z,36.79
2023-07-06T10:37:37.885Z,36.76
2023-07-06T10:38:37.966Z,36.78
2023-07-06T10:39:37.992Z,36.77
2023-07-06T10:40:38.023Z,36.75
2023-07-06T10:41:38.056Z,36.75
2023-07-06T10:42:38.079Z,36.79
2023-07-06T10:43:38.109Z,36.79
2023-07-06T10:44:38.136Z,36.80
2023-07-06T10:45:38.179Z,36.70
2023-07-06T10:46:38.297Z,36.71
2023-07-06T10:47:38.235Z,36.66
2023-07-06T10:48:38.249Z,36.63
2023-07-06T10:49:38.281Z,36.65
2023-07-06T10:50:38.317Z,36.64
2023-07-06T10:51:38.380Z,36.61
2023-07-06T10:52:38.433Z,36.62
2023-07-06T10:53:38.522Z,36.59
2023-07-06T10:54:38.660Z,36.60
2023-07-06T10:55:38.681Z,36.58
2023-07-06T10:56:38.728Z,36.53
2023-07-06T10:57:38.804Z,36.53
2023-07-06T10:58:38.885Z,36.52
2023-07-06T10:59:38.942Z,36.53
2023-07-06T11:00:39.027Z,36.51
2023-07-06T11:01:39.161Z,36.54
2023-07-06T11:02:39.185Z,36.52
2023-07-06T11:03:39.332Z,36.51
2023-07-06T11:04:39.925Z,36.54
2023-07-06T11:05:39.396Z,36.52
2023-07-06T11:06:39.483Z,36.48
2023-07-06T11:07:39.553Z,36.50
2023-07-06T11:08:39.619Z,36.50
2023-07-06T11:09:39.704Z,36.47
2023-07-06T11:10:41.434Z,36.43
2023-07-06T11:11:40.103Z,36.45
2023-07-06T11:12:40.132Z,36.45
2023-07-06T11:13:40.254Z,36.42
2023-07-06T11:14:40.285Z,36.27
2023-07-06T11:15:40.447Z,36.17
2023-07-06T11:16:40.492Z,36.10
2023-07-06T11:17:40.417Z,36.15
2023-07-06T11:18:40.446Z,36.15
2023-07-06T11:19:40.454Z,36.26
2023-07-06T11:20:40.485Z,36.21
2023-07-06T11:21:40.527Z,36.12
2023-07-06T11:22:40.529Z,36.21
2023-07-06T11:23:40.570Z,36.20
2023-07-06T11:24:40.592Z,36.18
2023-07-06T11:25:40.599Z,36.11
2023-07-06T11:26:40.664Z,36.11
2023-07-06T11:27:40.669Z,36.14
2023-07-06T11:28:40.724Z,36.00
2023-07-06T11:29:40.800Z,36.25
2023-07-06T11:30:40.893Z,36.32
2023-07-06T11:31:40.970Z,36.29
2023-07-06T11:32:41.042Z,36.33
2023-07-06T11:33:41.124Z,36.33
2023-07-06T11:34:41.210Z,36.33
2023-07-06T11:35:41.237Z,36.33
2023-07-06T11:36:41.262Z,36.31
2023-07-06T11:37:53.572Z,36.31
2023-07-06T11:38:42.318Z,36.31
2023-07-06T11:39:41.348Z,36.29
2023-07-06T11:40:41.370Z,36.32
2023-07-06T11:41:41.408Z,36.29
2023-07-06T11:42:41.412Z,36.25
2023-07-06T11:43:41.464Z,36.30
2023-07-06T11:44:41.474Z,36.22
2023-07-06T11:45:41.507Z,36.11
2023-07-06T11:46:41.529Z,36.02
2023-07-06T11:47:41.563Z,35.96
2023-07-06T11:48:41.576Z,35.87
2023-07-06T11:49:41.624Z,35.89
2023-07-06T11:50:41.635Z,35.77
2023-07-06T11:51:41.671Z,35.79
2023-07-06T11:52:41.691Z,35.71
2023-07-06T11:53:41.721Z,35.63
2023-07-06T11:54:41.791Z,35.55
2023-07-06T11:55:41.788Z,35.52
2023-07-06T11:56:41.816Z,35.48
2023-07-06T11:57:41.847Z,35.42
2023-07-06T11:58:41.859Z,35.46
2023-07-06T11:59:41.979Z,35.49
2023-07-06T12:00:41.946Z,35.46
2023-07-06T12:01:42.137Z,35.49
2023-07-06T12:02:42.040Z,35.59
2023-07-06T12:03:42.063Z,35.55
2023-07-06T12:04:42.117Z,35.63
2023-07-06T12:05:42.119Z,35.67
2023-07-06T12:06:42.116Z,35.70
2023-07-06T12:07:42.148Z,35.73
2023-07-06T12:08:42.194Z,35.77
2023-07-06T12:09:42.212Z,35.79
2023-07-06T12:10:42.268Z,35.87
2023-07-06T12:11:42.293Z,35.88
2023-07-06T12:12:42.316Z,35.91
2023-07-06T12:13:42.439Z,35.96
2023-07-06T12:14:42.371Z,35.88
2023-07-06T12:15:42.491Z,35.94
2023-07-06T12:16:42.507Z,35.92
2023-07-06T12:17:42.511Z,35.94
2023-07-06T12:18:42.530Z,35.97
2023-07-06T12:19:42.532Z,35.97
2023-07-06T12:20:42.548Z,36.01
2023-07-06T12:21:42.582Z,36.04
2023-07-06T12:22:42.609Z,36.04
2023-07-06T12:23:42.661Z,36.05
2023-07-06T12:24:42.686Z,36.02
2023-07-06T12:25:42.764Z,36.15
2023-07-06T12:26:42.733Z,36.12
2023-07-06T12:27:42.762Z,36.12
2023-07-06T12:28:42.795Z,36.13
2023-07-06T12:29:42.829Z,36.09
2023-07-06T12:30:42.867Z,36.15
2023-07-06T12:31:42.877Z,36.08
2023-07-06T12:32:42.917Z,36.06
2023-07-06T12:33:42.944Z,36.13
2023-07-06T12:34:42.975Z,36.09
2023-07-06T12:35:43.005Z,36.08
2023-07-06T12:36:43.045Z,36.05
2023-07-06T12:37:43.082Z,36.09
2023-07-06T12:38:43.123Z,36.08
2023-07-06T12:39:43.158Z,36.09
2023-07-06T12:40:43.262Z,36.12
2023-07-06T12:41:43.221Z,36.02
2023-07-06T12:42:43.291Z,36.04
2023-07-06T12:43:43.386Z,36.04
2023-07-06T12:44:43.404Z,36.00
2023-07-06T12:45:43.463Z,36.00
2023-07-06T12:46:43.519Z,35.99
2023-07-06T12:47:43.542Z,35.96
2023-07-06T12:48:43.525Z,35.96
2023-07-06T12:49:43.547Z,35.96
2023-07-06T12:50:43.583Z,35.96
2023-07-06T12:51:43.610Z,35.91
2023-07-06T12:52:43.649Z,35.91
2023-07-06T12:53:43.664Z,35.90